EHRD/RTM METAR and TAF weather

Enter ICAO airport designator
Station Type Date Time Source
EHRD METAR 2021/07/28 20:25 UTC NOAA

EHRD 282025Z AUTO 22013KT 180V250 9999 FEW038 18/12 Q1008 NOSIG


Station Type Date Time Source
EHRD Decoded METAR 2021/07/28 20:25 UTC NOAA

Rotterdam Airport Zestienhoven, Netherlands (EHRD) 51-57N 004-27E -4M
Jul 28, 2021 - 04:25 PM EDT / 2021.07.28 2025 UTC
Wind: from the SW (220 degrees) at 15 MPH (13 KT) (direction variable):0
Visibility: greater than 7 mile(s):0
Sky conditions: mostly clear
Temperature: 64 F (18 C)
Dew Point: 53 F (12 C)
Relative Humidity: 67%
Pressure (altimeter): 29.77 in. Hg (1008 hPa)
ob: EHRD 282025Z AUTO 22013KT 180V250 9999 FEW038 18/12 Q1008 NOSIG
cycle: 20

Station Type Date Time Source
EHRD TAF 2021/07/28 18:27 UTC NOAA

TAF EHRD 281713Z 2818/2924 22013KT 9999 SCT022
TEMPO 2822/2903 24017G27KT 5000 SHRA SCT020CB BKN030
BECMG 2906/2908 25018G28KT
BECMG 2916/2919 23013KT
BECMG 2920/2923 21008KT

Example: see airport list